createdAt,value
2022-12-04T00:00:11.888Z,85.85
2022-12-04T00:02:35.527Z,85.39
2022-12-04T00:04:59.239Z,86.36
2022-12-04T00:07:22.814Z,85.13
2022-12-04T00:09:46.353Z,86.24
2022-12-04T00:12:11.301Z,85.82
2022-12-04T00:14:49.098Z,86.52
2022-12-04T00:17:18.513Z,85.94
2022-12-04T00:19:42.082Z,85.43
2022-12-04T00:22:05.949Z,86.04
2022-12-04T00:24:29.483Z,86.07
2022-12-04T00:26:53.048Z,86.13
2022-12-04T00:29:18.044Z,86.66
2022-12-04T00:31:42.128Z,85.55
2022-12-04T00:34:08.018Z,85.13
2022-12-04T00:36:32.367Z,85.44
2022-12-04T00:38:56.386Z,86.12
2022-12-04T00:41:22.493Z,85.58
2022-12-04T00:43:46.926Z,85.70
2022-12-04T00:46:11.952Z,85.04
2022-12-04T00:48:35.622Z,85.71
2022-12-04T00:51:04.129Z,85.74
2022-12-04T00:53:27.679Z,85.44
2022-12-04T00:55:51.228Z,85.89
2022-12-04T00:58:15.134Z,86.53
2022-12-04T01:00:41.014Z,87.09
2022-12-04T01:03:07.037Z,86.39
2022-12-04T01:05:30.861Z,86.62
2022-12-04T01:07:55.258Z,86.17
2022-12-04T01:10:19.008Z,86.16
2022-12-04T01:12:42.541Z,87.53
2022-12-04T01:15:07.639Z,86.95
2022-12-04T01:17:31.216Z,86.83
2022-12-04T01:19:56.307Z,86.85
2022-12-04T01:22:19.998Z,86.64
2022-12-04T01:24:43.633Z,86.69
2022-12-04T01:27:07.265Z,87.73
2022-12-04T01:29:30.896Z,88.21
2022-12-04T01:31:54.506Z,87.39
2022-12-04T01:34:18.174Z,87.07
2022-12-04T01:36:43.108Z,87.16
2022-12-04T01:39:06.723Z,87.76
2022-12-04T01:41:33.139Z,88.11
2022-12-04T01:44:16.485Z,88.33
2022-12-04T01:46:40.600Z,87.96
2022-12-04T01:49:06.133Z,88.59
2022-12-04T01:51:35.007Z,89.44
2022-12-04T01:54:03.886Z,89.06
2022-12-04T01:56:33.461Z,89.24
2022-12-04T01:59:00.328Z,89.78
2022-12-04T02:01:24.464Z,88.79
2022-12-04T02:03:48.418Z,88.86
2022-12-04T02:06:12.217Z,89.91
2022-12-04T02:08:37.384Z,90.33
2022-12-04T02:11:15.099Z,90.85
2022-12-04T02:13:48.739Z,89.62
2022-12-04T02:16:21.536Z,89.33
2022-12-04T02:18:58.119Z,89.31
2022-12-04T02:21:28.772Z,90.27
2022-12-04T02:24:15.437Z,90.47
2022-12-04T02:26:48.883Z,90.36
2022-12-04T02:29:25.050Z,90.14
2022-12-04T02:31:55.245Z,89.87
2022-12-04T02:34:26.964Z,91.32
2022-12-04T02:36:56.610Z,91.13
2022-12-04T02:39:27.532Z,91.35
2022-12-04T02:41:58.663Z,91.51
2022-12-04T02:44:28.046Z,91.21
2022-12-04T02:46:57.309Z,91.02
2022-12-04T02:49:26.879Z,90.09
2022-12-04T02:51:51.932Z,90.65
2022-12-04T02:54:24.732Z,90.36
2022-12-04T02:56:51.659Z,90.62
2022-12-04T02:59:24.644Z,90.98
2022-12-04T03:01:53.243Z,91.18
2022-12-04T03:04:21.348Z,91.02
2022-12-04T03:06:48.838Z,91.32
2022-12-04T03:09:18.780Z,90.83
2022-12-04T03:11:46.331Z,92.78
2022-12-04T03:14:16.064Z,91.74
2022-12-04T03:16:42.898Z,90.18
2022-12-04T03:19:12.576Z,90.08
2022-12-04T03:21:41.281Z,90.14
2022-12-04T03:24:14.137Z,90.52
2022-12-04T03:26:42.599Z,90.89
2022-12-04T03:29:11.192Z,91.29
2022-12-04T03:31:52.583Z,91.48
2022-12-04T03:34:25.349Z,92.12
2022-12-04T03:36:55.127Z,92.56
2022-12-04T03:39:23.175Z,92.02
2022-12-04T03:41:58.196Z,92.89
2022-12-04T03:44:27.447Z,92.79
2022-12-04T03:46:57.129Z,93.04
2022-12-04T03:49:30.571Z,92.06
2022-12-04T03:52:00.735Z,91.54
2022-12-04T03:54:31.493Z,91.27
2022-12-04T03:57:00.068Z,91.63
2022-12-04T03:59:28.670Z,91.96
2022-12-04T04:01:55.330Z,92.24
2022-12-04T04:04:25.616Z,91.31
2022-12-04T04:06:55.447Z,89.94
2022-12-04T04:09:26.877Z,90.92
2022-12-04T04:11:55.527Z,90.12
2022-12-04T04:14:42.524Z,90.08
2022-12-04T04:17:34.901Z,89.23
2022-12-04T04:20:27.027Z,89.54
2022-12-04T04:23:11.421Z,91.43
2022-12-04T04:25:40.413Z,90.50
2022-12-04T04:28:03.901Z,90.34
2022-12-04T04:30:30.160Z,89.45
2022-12-04T04:33:01.466Z,90.25
2022-12-04T04:35:32.728Z,90.75
2022-12-04T04:38:04.322Z,91.54
2022-12-04T04:40:36.989Z,91.18
2022-12-04T04:43:08.647Z,91.05
2022-12-04T04:45:38.826Z,91.11
2022-12-04T04:48:09.178Z,90.43
2022-12-04T04:50:34.705Z,90.51
2022-12-04T04:53:04.910Z,90.99
2022-12-04T04:55:34.374Z,92.19
2022-12-04T04:58:08.770Z,92.76
2022-12-04T05:00:32.505Z,92.77
2022-12-04T05:02:56.072Z,92.31
2022-12-04T05:05:21.102Z,92.09
2022-12-04T05:07:44.782Z,92.48
2022-12-04T05:10:10.891Z,91.46
2022-12-04T05:12:34.420Z,91.13
2022-12-04T05:14:57.963Z,92.14
2022-12-04T05:17:21.470Z,91.01
2022-12-04T05:19:57.898Z,90.83
2022-12-04T05:22:27.135Z,91.22
2022-12-04T05:24:50.861Z,90.72
2022-12-04T05:27:14.529Z,90.25
2022-12-04T05:29:38.273Z,91.75
2022-12-04T05:32:01.966Z,90.79
2022-12-04T05:34:25.467Z,92.29
2022-12-04T05:36:49.050Z,92.33
2022-12-04T05:39:14.735Z,91.79
2022-12-04T05:41:38.343Z,91.48
2022-12-04T05:44:01.899Z,91.58
2022-12-04T05:46:25.510Z,91.58
2022-12-04T05:48:49.041Z,90.98
2022-12-04T05:51:13.033Z,91.04
2022-12-04T05:53:36.796Z,91.16
2022-12-04T05:56:04.035Z,91.65
2022-12-04T05:58:28.071Z,91.51
2022-12-04T06:00:51.971Z,91.63
2022-12-04T06:03:15.550Z,90.80
2022-12-04T06:05:39.228Z,92.59
2022-12-04T06:08:02.810Z,92.28
2022-12-04T06:10:26.405Z,92.76
2022-12-04T06:12:51.336Z,92.23
2022-12-04T06:15:14.963Z,92.39
2022-12-04T06:17:38.470Z,91.86
2022-12-04T06:20:06.546Z,92.26
2022-12-04T06:22:33.271Z,92.68
2022-12-04T06:24:56.787Z,91.49
2022-12-04T06:27:28.474Z,92.15
2022-12-04T06:29:54.230Z,93.01
2022-12-04T06:32:21.409Z,92.87
2022-12-04T06:34:45.632Z,92.12
2022-12-04T06:37:09.491Z,91.62
2022-12-04T06:39:33.264Z,92.25
2022-12-04T06:41:56.813Z,92.30
2022-12-04T06:44:20.415Z,92.80
2022-12-04T06:46:47.315Z,92.57
2022-12-04T06:49:12.037Z,91.43
2022-12-04T06:51:38.295Z,93.40
2022-12-04T06:54:02.799Z,93.25
2022-12-04T06:56:28.621Z,92.83
2022-12-04T06:58:55.486Z,91.76
2022-12-04T07:01:22.270Z,92.33
2022-12-04T07:03:51.660Z,92.28
2022-12-04T07:06:17.807Z,91.66
2022-12-04T07:08:41.490Z,90.62
2022-12-04T07:11:05.063Z,91.17
2022-12-04T07:13:28.621Z,91.44
2022-12-04T07:15:52.456Z,91.77
2022-12-04T07:18:16.069Z,91.21
2022-12-04T07:20:43.293Z,90.90
2022-12-04T07:23:07.540Z,90.08
2022-12-04T07:25:31.393Z,91.45
2022-12-04T07:27:55.044Z,91.45
2022-12-04T07:30:19.031Z,90.51
2022-12-04T07:32:42.657Z,90.90
2022-12-04T07:35:07.237Z,91.28
2022-12-04T07:37:32.369Z,91.50
2022-12-04T07:39:56.148Z,91.01
2022-12-04T07:42:24.086Z,90.96
2022-12-04T07:44:48.121Z,91.54
2022-12-04T07:47:11.735Z,90.90
2022-12-04T07:49:35.437Z,90.71
2022-12-04T07:51:59.016Z,91.72
2022-12-04T07:54:23.885Z,92.00
2022-12-04T07:56:47.471Z,92.02
2022-12-04T07:59:11.007Z,90.93
2022-12-04T08:01:34.868Z,91.59
2022-12-04T08:04:00.495Z,91.51
2022-12-04T08:06:26.364Z,90.68
2022-12-04T08:08:50.496Z,91.38
2022-12-04T08:11:18.191Z,91.25
2022-12-04T08:13:41.858Z,91.77
2022-12-04T08:16:07.293Z,91.45
2022-12-04T08:18:30.888Z,91.83
2022-12-04T08:20:54.457Z,92.58
2022-12-04T08:23:17.966Z,91.61
2022-12-04T08:25:42.146Z,92.58
2022-12-04T08:28:07.361Z,92.70
2022-12-04T08:30:31.081Z,92.60
2022-12-04T08:32:54.629Z,92.85
2022-12-04T08:35:18.417Z,92.19
2022-12-04T08:37:41.996Z,92.27
2022-12-04T08:40:06.726Z,92.54
2022-12-04T08:42:30.222Z,92.39
2022-12-04T08:44:55.239Z,91.65
2022-12-04T08:47:18.751Z,91.96
2022-12-04T08:49:42.360Z,91.71
2022-12-04T08:52:06.418Z,92.55
2022-12-04T08:54:35.788Z,93.25
2022-12-04T08:56:59.694Z,93.04
2022-12-04T08:59:23.598Z,92.05
2022-12-04T09:01:51.125Z,91.88
2022-12-04T09:04:14.852Z,92.18
2022-12-04T09:06:38.400Z,91.71
2022-12-04T09:09:01.994Z,92.45
2022-12-04T09:11:28.302Z,91.67
2022-12-04T09:13:52.496Z,92.55
2022-12-04T09:16:19.282Z,92.54
2022-12-04T09:18:44.366Z,92.38
2022-12-04T09:21:11.423Z,92.75
2022-12-04T09:23:36.733Z,91.93
2022-12-04T09:26:00.486Z,91.99
2022-12-04T09:28:24.144Z,91.91
2022-12-04T09:30:57.521Z,93.50
2022-12-04T09:33:21.131Z,93.07
2022-12-04T09:35:46.046Z,93.18
2022-12-04T09:38:09.619Z,92.69
2022-12-04T09:40:42.965Z,92.53
2022-12-04T09:43:19.705Z,91.92
2022-12-04T09:45:51.523Z,92.60
2022-12-04T09:48:19.751Z,92.20
2022-12-04T09:50:46.747Z,93.23
2022-12-04T09:53:15.364Z,93.35
2022-12-04T09:55:45.670Z,93.20
2022-12-04T09:58:15.433Z,92.95
2022-12-04T10:00:46.510Z,92.41
2022-12-04T10:03:17.521Z,92.36
2022-12-04T10:05:56.181Z,92.56
2022-12-04T10:08:25.033Z,93.35
2022-12-04T10:10:58.184Z,93.16
2022-12-04T10:13:44.607Z,92.86
2022-12-04T10:16:17.889Z,92.41
2022-12-04T10:18:50.165Z,92.54
2022-12-04T10:21:43.605Z,92.02
2022-12-04T10:24:28.840Z,93.37
2022-12-04T10:26:56.244Z,92.61
2022-12-04T10:29:24.141Z,92.38
2022-12-04T10:31:50.929Z,92.53
2022-12-04T10:34:20.225Z,91.63
2022-12-04T10:36:52.220Z,91.99
2022-12-04T10:39:21.667Z,92.44
2022-12-04T10:41:52.697Z,91.38
2022-12-04T10:44:18.425Z,92.69
2022-12-04T10:46:46.030Z,93.18
2022-12-04T10:49:21.415Z,93.18
2022-12-04T10:51:47.466Z,92.56
2022-12-04T10:54:21.656Z,93.05
2022-12-04T10:56:53.749Z,92.23
2022-12-04T10:59:17.626Z,92.93
2022-12-04T11:01:41.222Z,92.99
2022-12-04T11:04:10.185Z,92.70
2022-12-04T11:06:34.443Z,93.01
2022-12-04T11:09:00.804Z,92.38
2022-12-04T11:11:30.911Z,92.87
2022-12-04T11:14:04.747Z,91.68
2022-12-04T11:16:38.004Z,92.72
2022-12-04T11:19:01.714Z,92.21
2022-12-04T11:21:30.940Z,92.68
2022-12-04T11:23:55.801Z,91.00
2022-12-04T11:26:33.068Z,91.11
2022-12-04T11:28:59.065Z,92.54
2022-12-04T11:31:24.287Z,92.53
2022-12-04T11:33:53.508Z,92.13
2022-12-04T11:36:25.762Z,92.70
2022-12-04T11:38:50.324Z,92.75
2022-12-04T11:41:26.920Z,92.11
2022-12-04T11:43:54.133Z,91.75
2022-12-04T11:46:24.625Z,91.59
2022-12-04T11:48:48.160Z,90.99
2022-12-04T11:51:23.871Z,91.99
2022-12-04T11:53:55.048Z,92.08
2022-12-04T11:56:31.013Z,91.57
2022-12-04T11:59:22.278Z,91.63
2022-12-04T12:01:56.515Z,91.67
2022-12-04T12:04:56.419Z,91.95
2022-12-04T12:07:35.683Z,91.96
2022-12-04T12:10:04.917Z,91.98
2022-12-04T12:12:43.274Z,91.43
2022-12-04T12:15:19.341Z,91.56
2022-12-04T12:17:50.687Z,91.50
2022-12-04T12:20:21.135Z,92.69
2022-12-04T12:23:18.171Z,91.81
2022-12-04T12:25:52.532Z,92.15
2022-12-04T12:28:37.029Z,92.29
2022-12-04T12:31:20.814Z,92.03
2022-12-04T12:33:50.683Z,92.19
2022-12-04T12:36:16.570Z,92.61
2022-12-04T12:38:47.104Z,91.91
2022-12-04T12:41:15.597Z,91.46
2022-12-04T12:43:44.196Z,91.54
2022-12-04T12:46:14.184Z,92.73
2022-12-04T12:48:47.215Z,92.50
2022-12-04T12:51:30.716Z,92.00
2022-12-04T12:53:58.256Z,92.47
2022-12-04T12:56:33.240Z,91.57
2022-12-04T12:59:02.344Z,91.04
2022-12-04T13:01:39.735Z,91.44
2022-12-04T13:04:11.132Z,92.26
2022-12-04T13:06:44.529Z,92.57
2022-12-04T13:09:18.557Z,91.37
2022-12-04T13:11:43.053Z,91.86
2022-12-04T13:14:08.102Z,92.58
2022-12-04T13:16:38.915Z,91.69
2022-12-04T13:19:11.123Z,92.37
2022-12-04T13:21:39.103Z,92.90
2022-12-04T13:24:56.749Z,92.95
2022-12-04T13:27:33.607Z,93.20
2022-12-04T13:30:15.515Z,91.59
2022-12-04T13:33:27.235Z,91.53
2022-12-04T13:36:23.234Z,92.32
2022-12-04T13:39:18.409Z,93.97
2022-12-04T13:41:42.070Z,92.90
2022-12-04T13:44:15.175Z,92.24
2022-12-04T13:46:43.872Z,92.75
2022-12-04T13:49:26.320Z,93.05
2022-12-04T13:51:51.045Z,93.28
2022-12-04T13:54:28.956Z,93.05
2022-12-04T13:56:55.468Z,92.91
2022-12-04T13:59:34.575Z,93.47
2022-12-04T14:02:06.619Z,94.05
2022-12-04T14:04:36.138Z,94.07
2022-12-04T14:07:02.620Z,93.69
2022-12-04T14:09:30.157Z,93.91
2022-12-04T14:11:59.345Z,93.18
2022-12-04T14:14:30.125Z,93.65
2022-12-04T14:16:54.977Z,92.68
2022-12-04T14:19:33.636Z,93.62
2022-12-04T14:21:57.287Z,93.53
2022-12-04T14:24:35.127Z,94.12
2022-12-04T14:27:14.609Z,93.08
2022-12-04T14:29:49.371Z,93.33
2022-12-04T14:32:18.627Z,94.04
2022-12-04T14:34:43.861Z,93.55
2022-12-04T14:37:08.164Z,93.92
2022-12-04T14:39:35.709Z,93.90
2022-12-04T14:42:09.005Z,95.02
2022-12-04T14:44:33.391Z,93.80
2022-12-04T14:47:00.735Z,94.00
2022-12-04T14:49:38.393Z,93.63
2022-12-04T14:52:12.529Z,94.16
2022-12-04T14:54:45.955Z,93.70
2022-12-04T14:57:25.906Z,93.60
2022-12-04T14:59:51.823Z,93.29
2022-12-04T15:02:20.200Z,93.20
2022-12-04T15:04:46.338Z,93.02
2022-12-04T15:07:11.543Z,94.20
2022-12-04T15:09:52.785Z,94.67
2022-12-04T15:12:37.082Z,94.66
2022-12-04T15:15:06.034Z,93.71
2022-12-04T15:17:29.614Z,93.83
2022-12-04T15:19:53.171Z,94.34
2022-12-04T15:22:24.528Z,94.31
2022-12-04T15:24:48.144Z,94.18
2022-12-04T15:27:14.207Z,94.00
2022-12-04T15:29:48.107Z,94.15
2022-12-04T15:32:13.755Z,94.88
2022-12-04T15:34:43.156Z,94.68
2022-12-04T15:37:09.833Z,93.79
2022-12-04T15:39:38.051Z,94.30
2022-12-04T15:42:17.776Z,94.56
2022-12-04T15:44:41.448Z,94.42
2022-12-04T15:47:20.933Z,94.45
2022-12-04T15:49:44.573Z,94.85
2022-12-04T15:52:15.460Z,95.30
2022-12-04T15:54:44.841Z,93.96
2022-12-04T15:57:20.204Z,93.36
2022-12-04T15:59:51.014Z,94.52
2022-12-04T16:02:27.098Z,93.25
2022-12-04T16:04:50.769Z,94.15
2022-12-04T16:07:23.475Z,94.39
2022-12-04T16:10:03.177Z,94.23
2022-12-04T16:12:30.355Z,94.74
2022-12-04T16:14:55.362Z,94.96
2022-12-04T16:17:19.165Z,96.05
2022-12-04T16:19:43.798Z,95.94
2022-12-04T16:22:14.684Z,95.82
2022-12-04T16:24:39.538Z,95.75
2022-12-04T16:27:17.359Z,94.95
2022-12-04T16:29:40.913Z,94.43
2022-12-04T16:32:04.577Z,95.05
2022-12-04T16:34:28.243Z,94.61
2022-12-04T16:36:51.737Z,95.44
2022-12-04T16:39:15.404Z,95.16
2022-12-04T16:41:38.927Z,94.77
2022-12-04T16:44:04.210Z,95.36
2022-12-04T16:46:30.825Z,95.01
2022-12-04T16:48:54.521Z,94.82
2022-12-04T16:51:21.175Z,95.60
2022-12-04T16:53:44.808Z,95.19
2022-12-04T16:56:10.044Z,96.03
2022-12-04T16:58:33.621Z,96.55
2022-12-04T17:00:58.888Z,96.68
2022-12-04T17:03:27.878Z,96.62
2022-12-04T17:05:51.537Z,96.61
2022-12-04T17:08:15.330Z,96.36
2022-12-04T17:10:38.921Z,96.23
2022-12-04T17:13:02.499Z,97.11
2022-12-04T17:15:26.051Z,96.33
2022-12-04T17:17:51.686Z,95.01
2022-12-04T17:20:17.672Z,96.50
2022-12-04T17:22:41.637Z,97.22
2022-12-04T17:25:06.340Z,97.79
2022-12-04T17:27:29.969Z,98.16
2022-12-04T17:29:53.616Z,97.58
2022-12-04T17:32:17.478Z,96.67
2022-12-04T17:34:42.569Z,97.66
2022-12-04T17:37:06.250Z,97.04
2022-12-04T17:39:29.957Z,98.38
2022-12-04T17:41:53.538Z,98.80
2022-12-04T17:44:17.021Z,99.11
2022-12-04T17:46:40.655Z,98.48
2022-12-04T17:49:07.298Z,98.77
2022-12-04T17:51:32.527Z,99.13
2022-12-04T17:53:56.336Z,98.34
2022-12-04T17:56:22.354Z,98.70
2022-12-04T17:58:47.149Z,98.09
2022-12-04T18:01:13.659Z,98.24
2022-12-04T18:03:38.372Z,98.69
2022-12-04T18:06:02.299Z,98.62
2022-12-04T18:08:28.911Z,99.61
2022-12-04T18:10:52.532Z,99.68
2022-12-04T18:13:16.056Z,99.22
2022-12-04T18:15:39.650Z,99.28
2022-12-04T18:18:03.221Z,99.52
2022-12-04T18:20:26.828Z,98.85
2022-12-04T18:22:50.348Z,98.39
2022-12-04T18:25:15.311Z,98.50
2022-12-04T18:27:41.837Z,98.80
2022-12-04T18:30:07.363Z,99.27
2022-12-04T18:32:30.863Z,99.63
2022-12-04T18:34:54.772Z,99.08
2022-12-04T18:37:18.433Z,99.56
2022-12-04T18:39:42.197Z,98.82
2022-12-04T18:42:07.499Z,99.07
2022-12-04T18:44:31.220Z,99.16
2022-12-04T18:46:54.795Z,98.55
2022-12-04T18:49:18.395Z,98.63
2022-12-04T18:51:48.902Z,99.24
2022-12-04T18:54:15.682Z,99.77
2022-12-04T18:56:39.725Z,99.45
2022-12-04T18:59:08.723Z,98.46
2022-12-04T19:01:32.339Z,99.63
2022-12-04T19:03:58.433Z,99.49
2022-12-04T19:06:22.072Z,99.24
2022-12-04T19:08:45.783Z,98.85
2022-12-04T19:11:11.625Z,99.02
2022-12-04T19:13:37.181Z,99.55
2022-12-04T19:16:02.207Z,99.76
2022-12-04T19:18:25.805Z,100.00
2022-12-04T19:20:49.501Z,100.00
2022-12-04T19:23:13.229Z,100.00
2022-12-04T19:25:36.841Z,99.92
2022-12-04T19:28:02.980Z,99.34
2022-12-04T19:30:26.941Z,99.79
2022-12-04T19:32:52.097Z,99.11
2022-12-04T19:35:15.844Z,98.29
2022-12-04T19:37:41.907Z,98.53
2022-12-04T19:40:07.703Z,99.14
2022-12-04T19:42:31.987Z,99.58
2022-12-04T19:44:55.515Z,99.72
2022-12-04T19:47:20.042Z,100.00
2022-12-04T19:49:44.986Z,100.00
2022-12-04T19:52:08.531Z,100.00
2022-12-04T19:54:32.342Z,100.00
2022-12-04T19:56:55.937Z,100.00
2022-12-04T19:59:20.888Z,100.00
2022-12-04T20:01:44.862Z,98.72
2022-12-04T20:04:10.108Z,99.23
2022-12-04T20:06:41.814Z,99.51
2022-12-04T20:09:08.822Z,98.60
2022-12-04T20:11:33.261Z,99.10
2022-12-04T20:13:58.114Z,99.20
2022-12-04T20:16:23.108Z,98.53
2022-12-04T20:18:47.184Z,98.57
2022-12-04T20:21:12.076Z,99.17
2022-12-04T20:23:37.070Z,98.51
2022-12-04T20:26:06.603Z,98.71
2022-12-04T20:28:30.192Z,98.97
2022-12-04T20:30:54.449Z,99.11
2022-12-04T20:33:18.290Z,100.00
2022-12-04T20:35:41.847Z,99.71
2022-12-04T20:38:06.176Z,99.90
2022-12-04T20:40:31.223Z,99.44
2022-12-04T20:42:54.859Z,100.00
2022-12-04T20:45:18.558Z,100.00
2022-12-04T20:47:42.180Z,100.00
2022-12-04T20:50:06.603Z,99.86
2022-12-04T20:52:30.193Z,100.00
2022-12-04T20:54:53.694Z,98.74
2022-12-04T20:57:18.697Z,98.76
2022-12-04T20:59:42.237Z,98.29
2022-12-04T21:02:06.020Z,97.54
2022-12-04T21:04:29.661Z,99.00
2022-12-04T21:06:53.368Z,98.49
2022-12-04T21:09:20.496Z,97.91
2022-12-04T21:11:46.937Z,99.06
2022-12-04T21:14:33.344Z,99.34
2022-12-04T21:16:57.288Z,98.61
2022-12-04T21:19:23.702Z,98.95
2022-12-04T21:21:47.983Z,98.23
2022-12-04T21:24:14.234Z,99.76
2022-12-04T21:26:38.117Z,99.49
2022-12-04T21:29:03.019Z,99.39
2022-12-04T21:31:29.205Z,98.77
2022-12-04T21:33:52.798Z,99.53
2022-12-04T21:36:16.401Z,98.57
2022-12-04T21:38:41.456Z,98.71
2022-12-04T21:41:07.157Z,98.56
2022-12-04T21:43:32.754Z,98.39
2022-12-04T21:46:07.453Z,98.19
2022-12-04T21:48:35.613Z,98.38
2022-12-04T21:50:59.312Z,98.32
2022-12-04T21:53:23.496Z,99.27
2022-12-04T21:55:49.535Z,99.51
2022-12-04T21:58:13.212Z,100.00
2022-12-04T22:00:36.837Z,100.00
2022-12-04T22:03:00.546Z,99.99
2022-12-04T22:05:25.567Z,99.02
2022-12-04T22:07:49.204Z,99.23
2022-12-04T22:10:12.776Z,99.92
2022-12-04T22:12:52.376Z,99.69
2022-12-04T22:15:16.063Z,98.97
2022-12-04T22:17:39.623Z,98.67
2022-12-04T22:20:03.351Z,98.97
2022-12-04T22:22:28.330Z,99.83
2022-12-04T22:24:51.949Z,100.00
2022-12-04T22:27:15.915Z,99.47
2022-12-04T22:29:50.139Z,99.07
2022-12-04T22:32:14.360Z,98.38
2022-12-04T22:34:37.847Z,98.60
2022-12-04T22:37:01.406Z,98.61
2022-12-04T22:39:26.553Z,99.55
2022-12-04T22:41:50.145Z,99.57
2022-12-04T22:44:13.651Z,99.46
2022-12-04T22:46:37.275Z,99.49
2022-12-04T22:49:01.554Z,98.44
2022-12-04T22:51:25.191Z,100.00
2022-12-04T22:53:50.778Z,99.56
2022-12-04T22:56:18.234Z,99.62
2022-12-04T22:58:42.117Z,100.00
2022-12-04T23:01:11.672Z,100.00
2022-12-04T23:03:35.647Z,100.00
2022-12-04T23:06:02.128Z,100.00
2022-12-04T23:08:25.754Z,100.00
2022-12-04T23:10:49.309Z,100.00
2022-12-04T23:13:14.403Z,100.00
2022-12-04T23:15:39.042Z,99.24
2022-12-04T23:18:02.536Z,98.92
2022-12-04T23:20:26.227Z,99.06
2022-12-04T23:22:54.657Z,99.84
2022-12-04T23:25:18.464Z,99.76
2022-12-04T23:27:42.007Z,99.82
2022-12-04T23:30:09.388Z,99.87
2022-12-04T23:32:33.158Z,99.69
2022-12-04T23:34:56.788Z,98.73
2022-12-04T23:37:20.709Z,98.27
2022-12-04T23:39:44.282Z,98.98
2022-12-04T23:42:07.933Z,99.17
2022-12-04T23:44:31.701Z,98.78
2022-12-04T23:46:56.669Z,99.37
2022-12-04T23:49:20.320Z,100.00
2022-12-04T23:51:43.803Z,100.00
2022-12-04T23:54:07.723Z,100.00
2022-12-04T23:56:32.526Z,100.00
2022-12-04T23:58:58.548Z,100.00
